Pagina principale
METAR-TAF:

METAR-TAF

Aeroporti :

Aeroporto Internazionale del Kuwait

Madinat al-Kuwait, Kuwait

latitudine: 29-13N, longitudine: 047-59E, altezza: 55 m

Osservazione

Il bollettino è stato emesso 46 minuti fa, alle 17:00 UTC
Vento 4 kt da sud
Temperature 28°C
Umidità 70%
Pressione 1014 hPa
Visibilità: 7000 m
Cielo sereno

METAR: OKBK 191700Z 19004KT 7000 SKC 28/22 Q1014 NOSIG

Ora: 20:46 (17:46 UTC)

Previsione

Il bollettino è stato emesso 1 ora e 1 minuti fa, alle 16:45 UTC
Previsione valida dal 19 alle 18 UTC al 20 alle 24 UTC
Vento 10 kt da sud/sud-ovest
Visibilità: 6000 m
Temporaneamente
dal 19 alle 20 UTC al 20 alle 04 UTC
Vento 3 kt da direzioni variabili
Visibilità: 3000 m
foschia

TAF: OKBK 191645Z 1918/2024 21010KT 6000 NSC TEMPO 1920/2004 VRB03KT 3000 BR

Osservazioni e previsioni meteorologiche di più di 4000 aeroporti (messaggi METAR e TAF).

Le stazioni disponibili sono rappresentate dai dischi gialli e rossi sulla carta.

Puntare il mouse per vedere il nome della stazione.

Clicca sopra per visualizzare le osservazioni e previsioni meteorologiche.

Per cambiare la mappa : fare clic sui pulsanti verdi con una croce nera per ingrandire, il pulsante verde con un trattino per diminuire, o sulla freccia verde per le mappe adiacenti.


METAR-TAF: